Cleveland, OH (44126)

7:28 AM EST on February 28, 2015 (GMT -0500)
North of Lorain | Change Station
CLOSE
Current Station
Personal Weather Station
Location: Fairview Park, OH
Elevation: 791 ft
Nearby Weather Stations

Elev 791 ft 41.44 °N, 81.87 °W | Updated 1 second ago

Partly Cloudy
Partly Cloudy
-5.6 °F
Feels Like -6 °F
N
0.0
Wind Variable Wind from SW
Gusts 0.0 mph

Today
High -- | Low -- °F
--% Chance of Precip.
Yesterday
High -- | Low -- °F
Precip. -- in
7:03 AM 6:16 PM
Waxing Gibbous, 77% visible
Pressure 30.83 in
Visibility 8.0 miles
Clouds Few 20000 ft
Windchill -6 °F
Dew Point -11 °F
Humidity 77%
Rainfall 0.00 in
Snow Depth Not available.
UV 0.0 out of 12
Pollen .40 out of 12
Air Quality Not available.
Flu Activity Not available.
METAR KCLE 281151Z 00000KT 8SM FEW200 M22/M26 A3077 RMK AO2 SLP440 4/008 I6000 T12221256 11167 21228 51013 $

More Conditions Fewer Conditions

Pressure 30.83 in
Visibility 8.0 miles
Clouds Few 20000 ft
Windchill -6 °F
Dew Point -11 °F
Humidity 77%
Rainfall 0.00 in
Snow Depth Not available.
UV 0.0 out of 12
Pollen .40 out of 12
Air Quality Not available.
Flu Activity Not available.
METAR KCLE 281151Z 00000KT 8SM FEW200 M22/M26 A3077 RMK AO2 SLP440 4/008 I6000 T12221256 11167 21228 51013 $

More Conditions Fewer Conditions

10-Day Weather Forecast

Almanac

Astronomy

Feb. 28, 2015 Rise Set
Actual Time
Civil Twilight
Nautical Twilight
Astronomical Twilight
Moon
Length of Visible Light
Length of Day
Tomorrow will be .
, % of the Moon is Illuminated

Today's Extremes

State Highs State Lows

Community

WunderPhotos

Upload Photos

1,800,998 photos uploaded!

WunderBlogs® & News

Nearby

Air Quality

  Air Quality AQ Index Pollutant
Not available.

Snow Depth

Station Depth Elevation

Earthquake Activity

City Distance Mag. Time & Date
Minimum magnitude displayed is 2.5.

Coastal Water Temperatures

Place Temperature

Nearby Weather Stations